Time;durP1;ratioP1;P1;durP2;ratioP2;P2;SDS_P1;SDS_P2;PMS_P1;PMS_P2;Temp;Humidity;BMP_temperature;BMP_pressure;BME280_temperature;BME280_humidity;BME280_pressure;Samples;Min_cycle;Max_cycle;Signal;HPM_P1;HPM_P2
2024/01/01 00:01:17;;;;;;;35.30;18.90;;;3.80;99.90;;;3.17;100.00;96454.22;4965341;28;20077;-35
2024/01/01 00:03:43;;;;;;;64.07;30.50;;;3.90;99.90;;;3.27;100.00;96454.00;4962131;28;20086;-36
2024/01/01 00:06:09;;;;;;;39.67;21.05;;;4.00;99.90;;;3.24;100.00;96444.53;4965743;28;20066;-36
2024/01/01 00:08:35;;;;;;;35.08;18.58;;;4.00;99.90;;;3.28;100.00;96458.34;4966655;28;20443;-35
2024/01/01 00:11:01;;;;;;;28.88;16.85;;;4.00;99.90;;;3.26;100.00;96463.56;4964682;28;20034;-36
2024/01/01 00:13:26;;;;;;;26.33;13.98;;;4.10;99.90;;;3.27;100.00;96460.09;4968616;28;20048;-36
2024/01/01 00:15:52;;;;;;;20.83;10.70;;;4.10;99.90;;;3.27;100.00;96469.63;4964970;28;20070;-36
2024/01/01 00:18:18;;;;;;;20.40;11.13;;;4.00;99.90;;;3.23;100.00;96450.59;4964048;28;20285;-36
2024/01/01 00:20:45;;;;;;;17.60;9.65;;;4.00;99.90;;;3.20;100.00;96455.91;4962072;28;20042;-36
2024/01/01 00:23:10;;;;;;;16.65;8.55;;;4.00;99.90;;;3.14;100.00;96449.09;4965436;28;20073;-36
2024/01/01 00:25:36;;;;;;;14.88;8.05;;;4.00;99.90;;;3.23;100.00;96454.09;4963817;28;20058;-36
2024/01/01 00:28:05;;;;;;;14.07;7.22;;;4.00;99.90;;;3.35;100.00;96457.31;4965018;28;20487;-36
2024/01/01 00:30:31;;;;;;;13.55;6.72;;;4.10;99.90;;;3.43;100.00;96450.16;4963841;28;20042;-36
2024/01/01 00:32:57;;;;;;;12.48;7.22;;;4.20;99.90;;;3.48;100.00;96452.66;4965255;28;20036;-36
2024/01/01 00:35:23;;;;;;;13.43;7.30;;;4.20;99.90;;;3.51;100.00;96453.44;4966700;28;20468;-36
2024/01/01 00:37:48;;;;;;;12.35;6.60;;;4.30;99.90;;;3.40;100.00;96443.25;4959790;28;20270;-36
2024/01/01 00:40:15;;;;;;;14.30;7.75;;;4.20;99.90;;;3.34;100.00;96446.03;4964110;28;20038;-36
2024/01/01 00:42:42;;;;;;;16.65;7.70;;;4.10;99.90;;;3.23;100.00;96440.19;4947850;28;20030;-36
2024/01/01 00:45:09;;;;;;;11.70;6.68;;;4.00;99.90;;;3.19;100.00;96443.75;4960135;28;20309;-36
2024/01/01 00:47:35;;;;;;;11.10;6.30;;;3.90;99.90;;;3.07;100.00;96424.09;4966510;28;20030;-36
2024/01/01 00:50:03;;;;;;;17.73;8.52;;;3.90;99.90;;;3.14;100.00;96437.81;4962173;28;20034;-36
2024/01/01 00:52:29;;;;;;;15.27;9.23;;;3.90;99.90;;;3.12;100.00;96435.22;4967574;28;20084;-36
2024/01/01 00:54:55;;;;;;;15.07;7.78;;;3.90;99.90;;;3.14;100.00;96432.59;4961433;28;20043;-36
2024/01/01 00:57:21;;;;;;;16.75;8.10;;;3.90;99.90;;;3.14;100.00;96433.47;4965269;28;20066;-36
2024/01/01 00:59:46;;;;;;;21.35;12.18;;;3.90;99.90;;;3.20;100.00;96433.31;4961090;28;20093;-36
2024/01/01 01:02:12;;;;;;;21.73;8.88;;;3.90;99.90;;;3.18;100.00;96435.09;4966024;28;20034;-36
2024/01/01 01:04:42;;;;;;;14.15;7.50;;;3.90;99.90;;;3.15;100.00;96440.38;4963777;28;20122;-36
2024/01/01 01:07:07;;;;;;;14.40;7.38;;;3.90;99.90;;;3.08;100.00;96432.75;4965794;28;20406;-36
2024/01/01 01:09:33;;;;;;;10.63;6.15;;;3.90;99.90;;;3.09;100.00;96439.66;4965083;28;20667;-36
2024/01/01 01:11:59;;;;;;;13.95;7.40;;;3.90;99.90;;;3.17;100.00;96455.97;4960989;28;20358;-36
2024/01/01 01:14:24;;;;;;;11.88;7.55;;;4.00;99.90;;;3.16;100.00;96442.09;4964566;28;20491;-36
2024/01/01 01:16:50;;;;;;;13.32;7.30;;;4.00;99.90;;;3.19;100.00;96439.41;4963549;28;20056;-36
2024/01/01 01:19:16;;;;;;;13.27;7.55;;;4.00;99.90;;;3.31;100.00;96446.09;4966507;28;20399;-36
2024/01/01 01:21:41;;;;;;;14.68;7.80;;;4.10;99.90;;;3.37;100.00;96463.31;4969155;28;20065;-36
2024/01/01 01:24:07;;;;;;;15.75;7.10;;;4.10;99.90;;;3.39;100.00;96467.63;4971086;28;20502;-35
2024/01/01 01:26:33;;;;;;;16.75;8.07;;;4.20;99.90;;;3.35;100.00;96452.94;4972558;28;20034;-36
2024/01/01 01:28:58;;;;;;;14.32;7.10;;;4.20;99.90;;;3.40;100.00;96450.22;4966704;28;20125;-36
2024/01/01 01:31:24;;;;;;;14.35;7.40;;;4.30;99.90;;;3.53;100.00;96463.81;4972314;28;20026;-36
2024/01/01 01:33:51;;;;;;;14.07;7.38;;;4.30;99.90;;;3.60;100.00;96468.00;4965551;28;20681;-36
2024/01/01 01:36:17;;;;;;;15.20;6.68;;;4.40;99.90;;;3.57;100.00;96455.91;4970851;28;20495;-36
2024/01/01 01:38:43;;;;;;;11.25;6.38;;;4.40;99.90;;;3.65;100.00;96462.69;4963913;28;20043;-36
2024/01/01 01:41:08;;;;;;;11.73;5.72;;;4.40;99.90;;;3.58;100.00;96462.81;4972023;28;20120;-36
2024/01/01 01:43:34;;;;;;;13.10;7.10;;;4.30;99.90;;;3.51;100.00;96474.28;4970279;28;20042;-36
2024/01/01 01:46:01;;;;;;;27.17;12.48;;;4.20;99.90;;;3.31;100.00;96472.16;4968019;28;20081;-36
2024/01/01 01:48:27;;;;;;;27.15;13.73;;;4.10;99.90;;;3.10;100.00;96451.78;4973215;28;20030;-36
2024/01/01 01:50:55;;;;;;;24.80;14.35;;;3.90;99.90;;;2.98;100.00;96456.41;4966366;28;20066;-36
2024/01/01 01:53:23;;;;;;;20.92;11.05;;;3.80;99.90;;;2.83;100.00;96457.56;4969693;28;20097;-36
2024/01/01 01:55:51;;;;;;;17.58;9.52;;;3.70;99.90;;;2.70;100.00;96458.72;4966354;28;20034;-36
2024/01/01 01:58:17;;;;;;;21.33;10.88;;;3.60;99.90;;;2.66;100.00;96460.53;4964620;28;20467;-36
2024/01/01 02:00:46;;;;;;;12.98;7.10;;;3.50;99.90;;;2.68;100.00;96460.50;4970544;28;20117;-36
2024/01/01 02:03:13;;;;;;;12.32;6.00;;;3.50;99.90;;;2.77;100.00;96470.72;4967968;28;20034;-36
2024/01/01 02:05:39;;;;;;;10.15;5.00;;;3.50;99.90;;;2.92;100.00;96471.28;4972142;28;20026;-36
2024/01/01 02:08:06;;;;;;;9.70;5.05;;;3.70;99.90;;;3.08;100.00;96466.59;4966783;28;20097;-36
2024/01/01 02:10:32;;;;;;;8.70;4.55;;;3.80;99.90;;;3.24;100.00;96460.16;4969081;28;20579;-36
2024/01/01 02:12:59;;;;;;;7.70;3.30;;;4.00;99.90;;;3.36;100.00;96444.25;4966767;28;20038;-34
2024/01/01 02:15:25;;;;;;;6.88;2.90;;;4.10;99.90;;;3.46;100.00;96451.84;4968571;28;20154;-36
2024/01/01 02:17:51;;;;;;;6.75;2.80;;;4.20;99.90;;;3.55;100.00;96455.09;4968999;28;20487;-36
2024/01/01 02:20:17;;;;;;;5.15;2.72;;;4.30;99.90;;;3.65;100.00;96457.47;4970440;28;20054;-36
2024/01/01 02:22:43;;;;;;;6.38;3.20;;;4.40;99.90;;;3.67;100.00;96453.91;4968083;28;20624;-36
2024/01/01 02:25:09;;;;;;;4.53;2.58;;;4.50;99.90;;;3.75;100.00;96449.38;4968956;28;20042;-36
2024/01/01 02:27:39;;;;;;;4.75;2.30;;;4.50;99.90;;;3.79;100.00;96457.97;4970842;28;20117;-36
2024/01/01 02:30:12;;;;;;;8.20;2.85;;;4.50;99.90;;;3.79;100.00;96461.44;4962337;28;20029;-36
2024/01/01 02:32:38;;;;;;;7.18;3.33;;;4.50;99.90;;;3.68;100.00;96449.53;4968324;28;20097;-36
2024/01/01 02:35:08;;;;;;;9.68;3.67;;;4.40;99.90;;;3.50;100.00;96456.94;4967208;28;20648;-36
2024/01/01 02:37:35;;;;;;;4.93;3.00;;;4.30;99.90;;;3.50;100.00;96458.69;4967735;28;20035;-36
2024/01/01 02:40:02;;;;;;;5.57;2.95;;;4.30;99.90;;;3.42;100.00;96441.47;4967320;28;20076;-36
2024/01/01 02:42:29;;;;;;;7.28;3.30;;;4.20;99.90;;;3.51;100.00;96457.78;4967859;28;20023;-36
2024/01/01 02:44:55;;;;;;;6.32;3.13;;;4.20;99.90;;;3.47;100.00;96457.00;4963302;28;20037;-36
2024/01/01 02:47:21;;;;;;;8.85;3.90;;;4.30;99.90;;;3.59;100.00;96468.91;4969189;28;20089;-36
2024/01/01 02:49:46;;;;;;;6.63;2.90;;;4.30;99.90;;;3.63;100.00;96462.72;4962736;28;20468;-36
2024/01/01 02:52:12;;;;;;;8.35;3.28;;;4.40;99.90;;;3.60;100.00;96462.78;4967133;28;20046;-36
2024/01/01 02:54:38;;;;;;;5.40;2.78;;;4.40;99.90;;;3.51;100.00;96453.44;4968613;28;20336;-36
2024/01/01 02:57:04;;;;;;;4.93;2.88;;;4.30;99.90;;;3.40;100.00;96458.06;4966036;28;20102;-36
2024/01/01 02:59:30;;;;;;;6.18;3.25;;;4.20;99.90;;;3.28;100.00;96456.56;4965301;28;20133;-36
2024/01/01 03:01:56;;;;;;;7.13;3.28;;;4.10;99.90;;;3.18;100.00;96458.56;4963692;28;20416;-36
2024/01/01 03:04:21;;;;;;;6.75;3.60;;;4.00;99.90;;;3.09;100.00;96461.38;4964824;28;20034;-34
2024/01/01 03:06:47;;;;;;;5.90;3.20;;;3.90;99.90;;;2.99;100.00;96460.69;4964196;28;20046;-34
2024/01/01 03:09:13;;;;;;;4.93;2.47;;;3.80;99.90;;;2.94;100.00;96466.91;4966695;28;20038;-34
2024/01/01 03:11:40;;;;;;;5.18;2.75;;;3.70;99.90;;;2.85;100.00;96468.84;4967101;28;20034;-34
2024/01/01 03:14:05;;;;;;;7.82;3.53;;;3.60;99.90;;;2.74;100.00;96462.97;4961749;28;20440;-35
2024/01/01 03:16:32;;;;;;;8.50;3.30;;;3.60;99.90;;;2.70;100.00;96456.13;4965741;28;20030;-34
2024/01/01 03:18:58;;;;;;;6.57;3.25;;;3.50;99.90;;;2.61;100.00;96479.75;4965340;28;20034;-34
2024/01/01 03:21:24;;;;;;;5.47;3.17;;;3.40;99.90;;;2.62;100.00;96481.44;4957149;28;20498;-35
2024/01/01 03:23:50;;;;;;;6.28;3.20;;;3.40;99.90;;;2.71;100.00;96491.69;4959683;28;20550;-34
2024/01/01 03:26:17;;;;;;;5.60;3.15;;;3.50;99.90;;;2.68;100.00;96461.34;4965414;28;20554;-34
2024/01/01 03:28:43;;;;;;;5.53;3.10;;;3.60;99.90;;;3.01;100.00;96486.72;4963363;28;20061;-35
2024/01/01 03:31:09;;;;;;;5.18;3.03;;;3.70;99.90;;;3.11;100.00;96490.84;4963385;28;20026;-35
2024/01/01 03:33:35;;;;;;;8.60;2.97;;;3.90;99.90;;;3.13;100.00;96462.16;4963665;28;20034;-34
2024/01/01 03:36:13;;;;;;;8.43;2.75;;;4.00;99.90;;;3.18;100.00;96461.16;4964566;28;20026;-35
2024/01/01 03:38:39;;;;;;;6.63;2.80;;;4.10;99.90;;;3.43;100.00;96491.88;4941549;28;20519;-35
2024/01/01 03:41:04;;;;;;;6.47;3.03;;;4.20;99.90;;;3.52;100.00;96483.84;4960610;28;20023;-35
2024/01/01 03:43:30;;;;;;;6.20;2.78;;;4.30;99.90;;;3.59;100.00;96482.78;4965015;28;20061;-34
2024/01/01 03:45:56;;;;;;;5.57;2.92;;;4.30;99.90;;;3.65;100.00;96487.00;4959090;28;20026;-34
2024/01/01 03:48:22;;;;;;;6.18;2.85;;;4.40;99.90;;;3.70;100.00;96479.94;4962048;28;20051;-34
2024/01/01 03:50:48;;;;;;;6.00;2.90;;;4.50;99.90;;;3.77;100.00;96496.28;4960566;28;20046;-35
2024/01/01 03:53:13;;;;;;;5.90;2.78;;;4.50;99.90;;;3.79;100.00;96495.34;4962104;28;20432;-34
2024/01/01 03:55:39;;;;;;;6.50;2.80;;;4.50;99.90;;;3.90;100.00;96497.69;4963732;28;20178;-35
2024/01/01 03:58:05;;;;;;;4.40;2.42;;;4.60;99.90;;;3.93;100.00;96489.78;4960626;28;20070;-34
2024/01/01 04:00:30;;;;;;;6.53;2.30;;;4.70;99.90;;;3.89;100.00;96490.75;4962686;28;20392;-35
2024/01/01 04:02:56;;;;;;;4.00;2.30;;;4.70;99.90;;;3.86;100.00;96495.19;4958996;28;20054;-35
2024/01/01 04:05:22;;;;;;;6.00;2.50;;;4.60;99.90;;;3.76;100.00;96494.56;4966211;28;20429;-35
2024/01/01 04:07:48;;;;;;;4.60;2.63;;;4.50;99.90;;;3.54;100.00;96492.47;4960925;28;20098;-35
2024/01/01 04:10:13;;;;;;;5.65;2.33;;;4.40;99.90;;;3.49;100.00;96501.28;4963482;28;20116;-35
2024/01/01 04:12:39;;;;;;;6.22;2.58;;;4.20;99.90;;;3.39;100.00;96495.41;4960773;28;20553;-35
2024/01/01 04:15:05;;;;;;;4.53;2.30;;;4.10;99.90;;;3.25;100.00;96499.22;4963715;28;20039;-35
2024/01/01 04:17:32;;;;;;;5.68;2.70;;;4.00;99.90;;;3.14;100.00;96503.81;4961799;28;20065;-35
2024/01/01 04:19:58;;;;;;;4.30;2.80;;;3.90;99.90;;;3.03;100.00;96503.16;4965247;28;20173;-35
2024/01/01 04:22:23;;;;;;;6.80;2.67;;;3.80;99.90;;;2.96;100.00;96499.84;4959908;28;20393;-35
2024/01/01 04:24:49;;;;;;;6.88;2.30;;;3.70;99.90;;;2.94;100.00;96495.56;4964574;28;20577;-35
2024/01/01 04:27:15;;;;;;;4.85;2.22;;;3.70;99.90;;;2.91;100.00;96508.63;4960117;28;20046;-35
2024/01/01 04:29:40;;;;;;;4.45;2.30;;;3.70;99.90;;;2.69;100.00;96454.41;4965367;28;20062;-35
2024/01/01 04:32:06;;;;;;;6.07;2.17;;;3.70;99.90;;;2.93;100.00;96502.50;4962345;28;20391;-35
2024/01/01 04:34:32;;;;;;;6.40;2.10;;;3.70;99.90;;;2.89;100.00;96505.19;4962816;28;20049;-35
2024/01/01 04:36:57;;;;;;;3.22;1.83;;;3.60;99.90;;;2.86;100.00;96499.16;4962036;28;20042;-35
2024/01/01 04:39:23;;;;;;;5.15;1.77;;;3.60;99.90;;;2.86;100.00;96495.72;4962812;28;20032;-35
2024/01/01 04:41:49;;;;;;;3.45;1.58;;;3.60;99.90;;;2.83;100.00;96491.41;4961678;28;20061;-35
2024/01/01 04:44:14;;;;;;;2.83;1.73;;;3.60;99.90;;;2.62;100.00;96463.22;4962350;28;20031;-35
2024/01/01 04:46:40;;;;;;;6.10;1.85;;;3.60;99.90;;;2.70;100.00;96479.56;4964836;28;20038;-35
2024/01/01 04:49:06;;;;;;;3.95;1.60;;;3.50;99.90;;;2.70;100.00;96486.53;4964044;28;20118;-35
2024/01/01 04:51:32;;;;;;;6.82;1.90;;;3.50;99.90;;;2.61;100.00;96482.34;4961901;28;20071;-35
2024/01/01 04:53:57;;;;;;;3.85;1.50;;;3.40;99.90;;;2.52;100.00;96479.94;4962958;28;20030;-35
2024/01/01 04:56:23;;;;;;;2.85;1.20;;;3.40;99.90;;;2.44;100.00;96475.75;4962050;28;20081;-35
2024/01/01 04:58:52;;;;;;;4.28;1.30;;;3.30;99.90;;;2.36;100.00;96476.78;4965634;28;20062;-35
2024/01/01 05:01:17;;;;;;;4.45;1.20;;;3.30;99.90;;;2.37;100.00;96492.34;4963142;28;20057;-35
2024/01/01 05:03:43;;;;;;;3.70;1.38;;;3.20;99.90;;;2.36;100.00;96492.38;4962476;28;20030;-35
2024/01/01 05:06:09;;;;;;;2.97;1.30;;;3.20;99.90;;;2.45;100.00;96500.84;4964156;28;20045;-35
2024/01/01 05:08:34;;;;;;;3.83;1.45;;;3.20;99.90;;;2.45;100.00;96513.88;4964370;28;20034;-35
2024/01/01 05:11:04;;;;;;;2.78;1.10;;;3.20;99.90;;;2.46;100.00;96499.97;4960214;28;20053;-35
2024/01/01 05:13:30;;;;;;;4.78;1.25;;;3.30;99.90;;;2.62;100.00;96500.53;4963831;28;20057;-36
2024/01/01 05:15:56;;;;;;;2.38;0.82;;;3.30;99.90;;;2.78;100.00;96501.09;4960853;28;20057;-36
2024/01/01 05:18:21;;;;;;;3.83;0.90;;;3.50;99.90;;;2.84;100.00;96513.97;4962054;28;20129;-36
2024/01/01 05:20:47;;;;;;;3.45;1.20;;;3.50;99.90;;;2.88;100.00;96522.59;4959061;28;20039;-36
2024/01/01 05:23:13;;;;;;;3.75;1.00;;;3.60;99.90;;;2.79;100.00;96507.16;4962504;28;20161;-36
2024/01/01 05:25:38;;;;;;;3.20;0.80;;;3.60;99.90;;;2.82;100.00;96522.72;4962391;28;20034;-36
2024/01/01 05:28:07;;;;;;;3.92;0.95;;;3.60;99.90;;;2.88;100.00;96533.00;4964753;28;20035;-36
2024/01/01 05:30:34;;;;;;;3.28;0.93;;;3.60;99.90;;;2.89;100.00;96516.50;4961050;28;20042;-36
2024/01/01 05:33:00;;;;;;;2.65;0.90;;;3.70;99.90;;;2.95;100.00;96518.13;4958724;28;20062;-36
2024/01/01 05:35:26;;;;;;;3.03;0.82;;;3.70;99.90;;;2.96;100.00;96528.50;4961296;28;20086;-35
2024/01/01 05:37:51;;;;;;;4.35;1.05;;;3.70;99.90;;;2.88;100.00;96524.34;4961227;28;20491;-36
2024/01/01 05:40:17;;;;;;;4.15;0.80;;;3.70;99.90;;;2.96;100.00;96535.44;4960015;28;20034;-36
2024/01/01 05:42:43;;;;;;;2.05;0.75;;;3.70;99.90;;;3.03;100.00;96540.50;4966305;28;20035;-36
2024/01/01 05:45:09;;;;;;;3.70;0.80;;;3.80;99.90;;;3.06;100.00;96540.44;4958275;28;20030;-36
2024/01/01 05:47:34;;;;;;;2.78;0.65;;;3.80;99.90;;;3.14;100.00;96548.09;4961789;28;20062;-36
2024/01/01 05:50:00;;;;;;;3.67;0.95;;;3.90;99.90;;;3.17;100.00;96544.56;4958605;28;21359;-36
2024/01/01 05:52:26;;;;;;;2.63;0.75;;;3.90;99.90;;;3.29;100.00;96559.94;4964611;28;20030;-36
2024/01/01 05:54:51;;;;;;;1.15;0.50;;;4.10;99.90;;;3.40;100.00;96559.69;4962095;28;20038;-36
2024/01/01 05:57:17;;;;;;;5.85;1.10;;;4.10;99.90;;;3.47;100.00;96558.69;4964932;28;20054;-36
2024/01/01 05:59:43;;;;;;;3.00;0.75;;;4.20;99.90;;;3.47;100.00;96555.22;4963482;28;20041;-36
2024/01/01 06:02:08;;;;;;;1.27;0.40;;;4.30;99.90;;;3.55;100.00;96561.09;4958498;28;20134;-36
2024/01/01 06:04:34;;;;;;;1.48;0.60;;;4.30;99.90;;;3.58;100.00;96569.72;4962846;28;20028;-36
2024/01/01 06:07:00;;;;;;;3.72;0.88;;;4.40;99.90;;;3.57;100.00;96562.81;4965879;28;20525;-36
2024/01/01 06:09:26;;;;;;;4.70;1.13;;;4.40;99.90;;;3.55;100.00;96559.38;4969102;28;20061;-36
2024/01/01 06:11:51;;;;;;;3.00;0.70;;;4.40;99.90;;;3.53;100.00;96552.47;4966013;28;20031;-36
2024/01/01 06:14:17;;;;;;;1.55;0.80;;;4.40;99.90;;;3.60;100.00;96578.34;4965807;28;20034;-36
2024/01/01 06:16:44;;;;;;;2.75;0.80;;;4.40;99.90;;;3.56;100.00;96574.09;4968103;28;20030;-36
2024/01/01 06:19:10;;;;;;;2.55;0.80;;;4.40;99.90;;;3.47;100.00;96566.50;4960230;28;20045;-36
2024/01/01 06:21:36;;;;;;;2.80;0.75;;;4.30;99.90;;;3.34;100.00;96560.69;4966267;28;20129;-36
2024/01/01 06:24:02;;;;;;;2.60;0.70;;;4.20;99.90;;;3.39;100.00;96571.00;4962501;28;20034;-36
2024/01/01 06:26:28;;;;;;;3.28;1.15;;;4.20;99.90;;;3.25;100.00;96546.13;4968523;28;20364;-36
2024/01/01 06:28:53;;;;;;;3.25;0.75;;;4.20;99.90;;;3.32;100.00;96567.69;4963540;28;20041;-36
2024/01/01 06:31:19;;;;;;;3.05;0.90;;;4.20;99.90;;;3.33;100.00;96578.97;4964214;28;20073;-36
2024/01/01 06:33:45;;;;;;;3.38;0.90;;;4.10;99.90;;;3.22;100.00;96577.44;4966216;28;20042;-36
2024/01/01 06:36:10;;;;;;;3.47;0.90;;;4.10;99.90;;;3.12;100.00;96580.28;4963899;28;20085;-36
2024/01/01 06:38:36;;;;;;;5.90;1.33;;;3.90;99.90;;;3.01;100.00;96578.72;4965594;28;20046;-36
2024/01/01 06:41:03;;;;;;;5.75;0.75;;;3.80;99.90;;;2.92;100.00;96576.31;4966415;28;20454;-36
2024/01/01 06:43:28;;;;;;;3.25;0.73;;;3.70;99.90;;;2.86;100.00;96582.50;4966083;28;20022;-36
2024/01/01 06:45:54;;;;;;;2.90;0.70;;;3.60;99.90;;;2.83;100.00;96586.91;4962412;28;20023;-36
2024/01/01 06:48:20;;;;;;;2.05;0.57;;;3.60;99.90;;;2.91;100.00;96591.97;4965488;28;20042;-36
2024/01/01 06:50:45;;;;;;;2.40;0.63;;;3.60;99.90;;;2.91;100.00;96595.44;4967727;28;20108;-36
2024/01/01 06:53:11;;;;;;;3.30;0.93;;;3.60;99.90;;;2.91;100.00;96591.97;4962758;28;20066;-36
2024/01/01 06:55:37;;;;;;;5.35;0.80;;;3.60;99.90;;;2.95;100.00;96585.84;4966734;28;20034;-36
2024/01/01 06:58:03;;;;;;;4.10;0.70;;;3.70;99.90;;;2.98;100.00;96597.03;4960749;28;20035;-36
2024/01/01 07:00:29;;;;;;;2.70;0.73;;;3.70;99.90;;;2.88;100.00;96573.81;4968062;28;20037;-36
2024/01/01 07:02:54;;;;;;;4.53;0.90;;;3.70;99.90;;;3.07;100.00;96598.63;4964917;28;20035;-36
2024/01/01 07:05:21;;;;;;;4.85;0.85;;;3.80;99.90;;;2.98;100.00;96585.75;4968473;28;20074;-36
2024/01/01 07:07:47;;;;;;;3.65;0.63;;;3.80;99.90;;;3.10;100.00;96606.34;4965329;28;20043;-36
2024/01/01 07:10:13;;;;;;;4.25;1.02;;;3.80;99.90;;;3.01;100.00;96601.31;4964329;28;20403;-36
2024/01/01 07:12:39;;;;;;;4.57;0.90;;;3.80;99.90;;;3.02;100.00;96616.94;4961993;28;20074;-36
2024/01/01 07:15:05;;;;;;;3.60;0.80;;;3.80;99.90;;;3.02;100.00;96622.13;4961654;28;20422;-36
2024/01/01 07:17:31;;;;;;;5.65;0.88;;;3.80;99.90;;;2.99;100.00;96621.34;4963678;28;20038;-36
2024/01/01 07:19:56;;;;;;;4.03;0.77;;;3.70;99.90;;;2.94;100.00;96625.78;4964225;28;20030;-36
2024/01/01 07:22:22;;;;;;;5.13;0.93;;;3.70;99.90;;;2.93;100.00;96637.09;4963819;28;20042;-36
2024/01/01 07:24:48;;;;;;;3.33;0.73;;;3.60;99.90;;;2.90;100.00;96638.00;4963229;28;20027;-36
2024/01/01 07:27:13;;;;;;;4.03;0.82;;;3.60;99.90;;;2.89;100.00;96641.50;4964383;28;20504;-36
2024/01/01 07:29:40;;;;;;;3.40;0.50;;;3.60;99.90;;;2.89;100.00;96651.03;4966928;28;20038;-36
2024/01/01 07:32:06;;;;;;;5.28;0.70;;;3.60;99.90;;;2.82;100.00;96619.91;4961158;28;20499;-36
2024/01/01 07:34:32;;;;;;;3.08;0.73;;;3.70;99.90;;;3.02;100.00;96636.91;4966809;28;20039;-36
2024/01/01 07:36:58;;;;;;;4.22;0.60;;;3.70;99.90;;;2.96;100.00;96637.00;4962654;28;20411;-36
2024/01/01 07:39:24;;;;;;;5.18;0.73;;;3.80;99.90;;;3.02;100.00;96631.72;4964185;28;20069;-36
2024/01/01 07:41:51;;;;;;;2.40;0.80;;;3.80;99.90;;;3.06;100.00;96638.56;4963505;28;20030;-36
2024/01/01 07:44:16;;;;;;;1.58;0.52;;;3.80;99.90;;;3.08;100.00;96630.72;4964858;28;20034;-36
2024/01/01 07:46:42;;;;;;;4.03;0.60;;;3.80;99.90;;;2.94;100.00;96617.97;4962817;28;20042;-36
2024/01/01 07:49:08;;;;;;;5.75;0.75;;;3.80;99.90;;;2.90;100.00;96600.69;4964169;28;20579;-36
2024/01/01 07:51:35;;;;;;;5.47;1.45;;;3.80;99.90;;;3.08;100.00;96626.38;4961717;28;20036;-36
2024/01/01 07:54:01;;;;;;;3.03;0.60;;;3.80;99.90;;;3.08;100.00;96628.13;4964582;28;20027;-36
2024/01/01 07:56:28;;;;;;;3.00;0.60;;;3.90;99.90;;;3.15;100.00;96627.09;4966105;28;20990;-35
2024/01/01 07:58:54;;;;;;;2.88;0.75;;;3.80;99.90;;;3.15;100.00;96633.16;4963477;28;20058;-35
2024/01/01 08:01:20;;;;;;;4.53;0.55;;;3.90;99.90;;;3.15;100.00;96635.78;4965325;28;20130;-35
2024/01/01 08:03:46;;;;;;;3.47;0.45;;;3.90;99.90;;;3.19;100.00;96645.25;4965756;28;20408;-35
2024/01/01 08:06:12;;;;;;;3.45;0.70;;;3.90;99.90;;;3.22;100.00;96650.41;4964919;28;20054;-35
2024/01/01 08:08:38;;;;;;;4.70;1.02;;;4.00;99.90;;;3.27;100.00;96659.88;4961692;28;20054;-35
2024/01/01 08:11:04;;;;;;;2.95;0.70;;;4.00;99.90;;;3.32;100.00;96656.31;4963107;28;20543;-35
2024/01/01 08:13:30;;;;;;;4.32;0.65;;;4.10;99.90;;;3.36;100.00;96672.75;4964883;28;20049;-35
2024/01/01 08:15:55;;;;;;;1.75;0.60;;;4.10;99.90;;;3.36;100.00;96670.97;4964204;28;20636;-35
2024/01/01 08:18:21;;;;;;;1.95;0.60;;;4.10;99.90;;;3.45;100.00;96680.38;4965193;28;20070;-35
2024/01/01 08:20:47;;;;;;;3.70;0.90;;;4.20;99.90;;;3.60;100.00;96677.44;4960136;28;20035;-35
2024/01/01 08:23:12;;;;;;;4.60;0.70;;;4.30;99.90;;;3.73;100.00;96667.63;4961952;28;20030;-35
2024/01/01 08:25:39;;;;;;;4.32;0.70;;;4.50;99.90;;;4.05;100.00;96686.06;4951119;28;20458;-35
2024/01/01 08:28:05;;;;;;;3.42;0.85;;;4.80;99.90;;;4.31;100.00;96691.53;4963160;28;20027;-35
2024/01/01 08:30:31;;;;;;;1.90;0.70;;;5.00;99.90;;;4.32;100.00;96688.00;4963870;28;20054;-35
2024/01/01 08:32:57;;;;;;;1.38;0.50;;;5.10;99.90;;;4.32;100.00;96679.34;4965048;28;20034;-35
2024/01/01 08:35:23;;;;;;;6.05;1.00;;;5.00;99.90;;;4.29;100.00;96687.22;4961550;28;20070;-35
2024/01/01 08:37:49;;;;;;;1.38;0.50;;;5.00;99.90;;;4.20;100.00;96672.66;4962911;28;20098;-35
2024/01/01 08:40:15;;;;;;;6.82;1.23;;;5.00;99.90;;;4.21;100.00;96672.59;4962235;28;20030;-35
2024/01/01 08:42:40;;;;;;;2.72;0.65;;;5.00;99.90;;;4.20;100.00;96676.13;4964297;28;20375;-35
2024/01/01 08:45:07;;;;;;;3.45;0.57;;;5.00;99.90;;;4.19;100.00;96681.38;4964095;28;20118;-35
2024/01/01 08:47:32;;;;;;;2.88;0.55;;;5.00;99.90;;;4.22;100.00;96676.09;4965439;28;21202;-35
2024/01/01 08:49:59;;;;;;;6.65;0.80;;;5.00;99.90;;;4.19;100.00;96670.94;4962177;28;20211;-35
2024/01/01 08:52:25;;;;;;;4.70;1.00;;;5.00;99.90;;;4.18;100.00;96677.91;4963890;28;20042;-35
2024/01/01 08:54:51;;;;;;;4.75;1.05;;;5.00;99.90;;;4.29;100.00;96676.78;4957013;28;20031;-35
2024/01/01 08:57:16;;;;;;;2.80;0.88;;;5.00;99.90;;;4.33;100.00;96673.22;4964204;28;20053;-36
2024/01/01 08:59:42;;;;;;;7.30;0.77;;;5.00;99.90;;;4.28;100.00;96662.03;4967563;28;20034;-35
2024/01/01 09:02:09;;;;;;;4.35;1.05;;;5.10;99.90;;;4.42;100.00;96680.00;4962051;28;20058;-35
2024/01/01 09:04:35;;;;;;;3.45;0.93;;;5.20;99.90;;;4.44;100.00;96678.19;4962100;28;20118;-35
2024/01/01 09:07:02;;;;;;;4.70;0.80;;;5.20;99.90;;;4.49;100.00;96690.25;4964129;28;20046;-36
2024/01/01 09:09:28;;;;;;;8.07;1.02;;;5.20;99.90;;;4.58;100.00;96683.94;4962266;28;20496;-36
2024/01/01 09:11:54;;;;;;;5.80;0.82;;;5.30;99.90;;;4.61;100.00;96696.06;4962841;28;20113;-35
2024/01/01 09:14:20;;;;;;;2.42;0.70;;;5.30;99.90;;;4.65;100.00;96695.94;4960240;28;20263;-35
2024/01/01 09:16:47;;;;;;;4.10;0.77;;;5.40;99.90;;;4.69;100.00;96692.34;4966281;28;20956;-36
2024/01/01 09:19:14;;;;;;;7.15;1.15;;;5.40;99.90;;;4.71;100.00;96698.41;4959182;28;20151;-35
2024/01/01 09:21:40;;;;;;;5.32;1.20;;;5.50;99.90;;;4.83;100.00;96706.81;4965282;28;20053;-36
2024/01/01 09:24:09;;;;;;;8.07;1.65;;;5.50;99.90;;;4.91;100.00;96704.88;4960686;28;20031;-35
2024/01/01 09:26:35;;;;;;;6.40;1.23;;;5.60;99.90;;;4.98;100.00;96722.97;4962797;28;20031;-36
2024/01/01 09:29:01;;;;;;;3.83;0.63;;;5.70;99.90;;;5.01;100.00;96724.66;4962439;28;20523;-36
2024/01/01 09:31:27;;;;;;;5.63;1.10;;;5.70;99.90;;;5.08;100.00;96715.75;4963075;28;20037;-36
2024/01/01 09:33:55;;;;;;;3.92;0.73;;;5.80;99.90;;;5.19;100.00;96714.59;4960042;28;20491;-36
2024/01/01 09:36:20;;;;;;;4.00;0.90;;;5.90;99.90;;;5.30;100.00;96730.88;4962914;28;20042;-36
2024/01/01 09:38:46;;;;;;;2.30;0.68;;;6.00;99.90;;;5.22;100.00;96688.38;4965700;28;20047;-36
2024/01/01 09:41:12;;;;;;;5.88;0.77;;;6.20;99.90;;;5.63;100.00;96736.06;4970986;28;20453;-36
2024/01/01 09:43:40;;;;;;;6.57;0.95;;;6.30;99.90;;;5.84;100.00;96727.63;4965261;28;20554;-35
2024/01/01 09:46:06;;;;;;;1.58;0.60;;;6.50;99.90;;;6.00;100.00;96714.13;4964946;28;20027;-36
2024/01/01 09:48:32;;;;;;;5.30;1.05;;;6.70;99.90;;;6.23;100.00;96731.78;4964648;28;20046;-36
2024/01/01 09:50:57;;;;;;;1.58;0.82;;;6.90;99.90;;;6.27;100.00;96726.38;4961833;28;20042;-36
2024/01/01 09:53:24;;;;;;;2.83;0.63;;;7.00;99.90;;;6.27;100.00;96728.16;4963081;28;20503;-36
2024/01/01 09:55:54;;;;;;;4.47;0.65;;;6.90;99.90;;;6.21;100.00;96721.34;4969290;28;20521;-35
2024/01/01 09:58:20;;;;;;;5.18;0.50;;;6.90;99.90;;;6.11;100.00;96717.28;4964765;28;20038;-35
2024/01/01 10:00:48;;;;;;;2.50;0.80;;;6.80;99.90;;;6.01;100.00;96721.06;4965153;28;20069;-35
2024/01/01 10:03:14;;;;;;;4.85;0.80;;;6.70;99.90;;;5.91;100.00;96720.47;4965117;28;20358;-35
2024/01/01 10:05:41;;;;;;;2.75;0.50;;;6.60;99.90;;;5.88;100.00;96715.31;4964944;28;20030;-35
2024/01/01 10:08:14;;;;;;;5.25;1.10;;;6.60;99.90;;;5.88;100.00;96710.91;4967293;28;20113;-36
2024/01/01 10:10:42;;;;;;;3.00;0.75;;;6.60;99.90;;;5.94;100.00;96712.53;4965868;28;20514;-35
2024/01/01 10:13:12;;;;;;;6.38;0.80;;;6.70;99.90;;;5.99;100.00;96713.25;4964126;28;20053;-36
2024/01/01 10:15:40;;;;;;;3.08;0.65;;;6.70;99.90;;;5.95;100.00;96701.13;4964734;28;20034;-35
2024/01/01 10:18:18;;;;;;;4.82;0.80;;;6.70;99.90;;;6.10;100.00;96715.53;4968460;28;20062;-35
2024/01/01 10:20:44;;;;;;;1.67;0.52;;;6.80;99.90;;;6.08;100.00;96714.75;4963715;28;20519;-36